sensor_id;sensor_type;location;lat;lon;timestamp;P1;durP1;ratioP1;P2;durP2;ratioP2
64595;SDS011;51003;51.628;6.670;2023-08-06T00:00:48;5.13;;;4.30;;
64595;SDS011;51003;51.628;6.670;2023-08-06T00:03:14;5.43;;;4.40;;
64595;SDS011;51003;51.628;6.670;2023-08-06T00:05:42;6.67;;;4.23;;
64595;SDS011;51003;51.628;6.670;2023-08-06T00:08:08;4.63;;;3.60;;
64595;SDS011;51003;51.628;6.670;2023-08-06T00:10:33;4.97;;;4.50;;
64595;SDS011;51003;51.628;6.670;2023-08-06T00:12:58;5.93;;;4.20;;
64595;SDS011;51003;51.628;6.670;2023-08-06T00:15:24;5.03;;;4.10;;
64595;SDS011;51003;51.628;6.670;2023-08-06T00:17:49;7.00;;;4.50;;
64595;SDS011;51003;51.628;6.670;2023-08-06T00:20:14;5.43;;;4.30;;
64595;SDS011;51003;51.628;6.670;2023-08-06T00:22:40;6.73;;;4.33;;
64595;SDS011;51003;51.628;6.670;2023-08-06T00:25:05;4.47;;;4.17;;
64595;SDS011;51003;51.628;6.670;2023-08-06T00:27:31;5.83;;;4.70;;
64595;SDS011;51003;51.628;6.670;2023-08-06T00:29:57;4.73;;;4.33;;
64595;SDS011;51003;51.628;6.670;2023-08-06T00:32:23;6.20;;;4.33;;
64595;SDS011;51003;51.628;6.670;2023-08-06T00:34:48;5.83;;;4.10;;
64595;SDS011;51003;51.628;6.670;2023-08-06T00:37:17;6.00;;;3.90;;
64595;SDS011;51003;51.628;6.670;2023-08-06T00:39:43;7.17;;;4.50;;
64595;SDS011;51003;51.628;6.670;2023-08-06T00:42:09;4.70;;;4.13;;
64595;SDS011;51003;51.628;6.670;2023-08-06T00:44:34;8.50;;;4.80;;
64595;SDS011;51003;51.628;6.670;2023-08-06T00:47:00;5.20;;;4.70;;
64595;SDS011;51003;51.628;6.670;2023-08-06T00:49:26;4.30;;;3.90;;
64595;SDS011;51003;51.628;6.670;2023-08-06T00:51:51;5.13;;;4.27;;
64595;SDS011;51003;51.628;6.670;2023-08-06T00:54:17;4.97;;;4.40;;
64595;SDS011;51003;51.628;6.670;2023-08-06T00:56:42;5.23;;;4.17;;
64595;SDS011;51003;51.628;6.670;2023-08-06T00:59:08;4.10;;;3.70;;
64595;SDS011;51003;51.628;6.670;2023-08-06T01:01:34;5.87;;;4.00;;
64595;SDS011;51003;51.628;6.670;2023-08-06T01:03:59;6.70;;;3.77;;
64595;SDS011;51003;51.628;6.670;2023-08-06T01:06:35;6.53;;;4.40;;
64595;SDS011;51003;51.628;6.670;2023-08-06T01:09:19;6.13;;;3.90;;
64595;SDS011;51003;51.628;6.670;2023-08-06T01:14:52;3.80;;;3.50;;
64595;SDS011;51003;51.628;6.670;2023-08-06T01:17:24;4.50;;;4.10;;
64595;SDS011;51003;51.628;6.670;2023-08-06T01:19:51;5.60;;;4.27;;
64595;SDS011;51003;51.628;6.670;2023-08-06T01:22:17;4.27;;;3.83;;
64595;SDS011;51003;51.628;6.670;2023-08-06T01:24:43;4.20;;;3.80;;
64595;SDS011;51003;51.628;6.670;2023-08-06T01:27:14;7.30;;;4.33;;
64595;SDS011;51003;51.628;6.670;2023-08-06T01:29:47;6.60;;;4.30;;
64595;SDS011;51003;51.628;6.670;2023-08-06T01:32:15;5.40;;;4.20;;
64595;SDS011;51003;51.628;6.670;2023-08-06T01:34:41;5.80;;;4.00;;
64595;SDS011;51003;51.628;6.670;2023-08-06T01:37:07;6.00;;;4.27;;
64595;SDS011;51003;51.628;6.670;2023-08-06T01:39:33;5.50;;;4.40;;
64595;SDS011;51003;51.628;6.670;2023-08-06T01:41:59;7.10;;;4.60;;
64595;SDS011;51003;51.628;6.670;2023-08-06T01:44:24;5.03;;;4.53;;
64595;SDS011;51003;51.628;6.670;2023-08-06T01:46:49;5.43;;;4.93;;
64595;SDS011;51003;51.628;6.670;2023-08-06T01:49:15;9.03;;;5.20;;
64595;SDS011;51003;51.628;6.670;2023-08-06T01:51:40;9.10;;;5.23;;
64595;SDS011;51003;51.628;6.670;2023-08-06T01:54:05;6.00;;;5.27;;
64595;SDS011;51003;51.628;6.670;2023-08-06T01:56:31;6.33;;;5.40;;
64595;SDS011;51003;51.628;6.670;2023-08-06T01:58:56;7.73;;;5.40;;
64595;SDS011;51003;51.628;6.670;2023-08-06T02:01:21;6.03;;;5.43;;
64595;SDS011;51003;51.628;6.670;2023-08-06T02:03:47;8.47;;;5.77;;
64595;SDS011;51003;51.628;6.670;2023-08-06T02:06:12;6.10;;;5.07;;
64595;SDS011;51003;51.628;6.670;2023-08-06T02:08:37;7.17;;;5.50;;
64595;SDS011;51003;51.628;6.670;2023-08-06T02:11:04;9.03;;;6.33;;
64595;SDS011;51003;51.628;6.670;2023-08-06T02:13:29;12.70;;;5.97;;
64595;SDS011;51003;51.628;6.670;2023-08-06T02:15:55;11.53;;;6.37;;
64595;SDS011;51003;51.628;6.670;2023-08-06T02:18:20;10.20;;;6.13;;
64595;SDS011;51003;51.628;6.670;2023-08-06T02:21:07;7.37;;;5.47;;
64595;SDS011;51003;51.628;6.670;2023-08-06T02:23:31;6.90;;;5.87;;
64595;SDS011;51003;51.628;6.670;2023-08-06T02:25:57;13.80;;;6.00;;
64595;SDS011;51003;51.628;6.670;2023-08-06T02:28:23;15.77;;;6.60;;
64595;SDS011;51003;51.628;6.670;2023-08-06T02:30:49;8.93;;;5.87;;
64595;SDS011;51003;51.628;6.670;2023-08-06T02:33:15;6.67;;;5.53;;
64595;SDS011;51003;51.628;6.670;2023-08-06T02:35:41;6.50;;;5.43;;
64595;SDS011;51003;51.628;6.670;2023-08-06T02:38:06;6.77;;;5.67;;
64595;SDS011;51003;51.628;6.670;2023-08-06T02:40:31;11.23;;;5.43;;
64595;SDS011;51003;51.628;6.670;2023-08-06T02:42:57;6.10;;;4.70;;
64595;SDS011;51003;51.628;6.670;2023-08-06T02:45:22;6.50;;;4.90;;
64595;SDS011;51003;51.628;6.670;2023-08-06T02:47:47;5.30;;;4.80;;
64595;SDS011;51003;51.628;6.670;2023-08-06T02:50:13;5.93;;;4.97;;
64595;SDS011;51003;51.628;6.670;2023-08-06T02:52:38;5.03;;;4.53;;
64595;SDS011;51003;51.628;6.670;2023-08-06T02:55:05;4.80;;;4.30;;
64595;SDS011;51003;51.628;6.670;2023-08-06T02:57:31;5.70;;;4.47;;
64595;SDS011;51003;51.628;6.670;2023-08-06T02:59:56;4.80;;;4.20;;
64595;SDS011;51003;51.628;6.670;2023-08-06T03:02:22;7.20;;;4.20;;
64595;SDS011;51003;51.628;6.670;2023-08-06T03:04:47;5.60;;;4.50;;
64595;SDS011;51003;51.628;6.670;2023-08-06T03:07:12;6.73;;;4.63;;
64595;SDS011;51003;51.628;6.670;2023-08-06T03:09:38;5.23;;;4.40;;
64595;SDS011;51003;51.628;6.670;2023-08-06T03:12:03;6.73;;;4.77;;
64595;SDS011;51003;51.628;6.670;2023-08-06T03:14:29;4.80;;;3.83;;
64595;SDS011;51003;51.628;6.670;2023-08-06T03:16:54;8.83;;;4.60;;
64595;SDS011;51003;51.628;6.670;2023-08-06T03:19:19;6.50;;;4.47;;
64595;SDS011;51003;51.628;6.670;2023-08-06T03:21:45;6.00;;;4.80;;
64595;SDS011;51003;51.628;6.670;2023-08-06T03:24:10;6.60;;;4.43;;
64595;SDS011;51003;51.628;6.670;2023-08-06T03:26:35;4.40;;;4.10;;
64595;SDS011;51003;51.628;6.670;2023-08-06T03:29:01;5.10;;;4.40;;
64595;SDS011;51003;51.628;6.670;2023-08-06T03:31:26;4.87;;;4.47;;
64595;SDS011;51003;51.628;6.670;2023-08-06T03:33:51;4.47;;;4.07;;
64595;SDS011;51003;51.628;6.670;2023-08-06T03:36:17;6.37;;;4.37;;
64595;SDS011;51003;51.628;6.670;2023-08-06T03:38:42;4.63;;;4.23;;
64595;SDS011;51003;51.628;6.670;2023-08-06T03:41:07;6.27;;;4.13;;
64595;SDS011;51003;51.628;6.670;2023-08-06T03:43:33;4.33;;;3.93;;
64595;SDS011;51003;51.628;6.670;2023-08-06T03:45:58;5.33;;;4.30;;
64595;SDS011;51003;51.628;6.670;2023-08-06T03:48:23;7.63;;;4.30;;
64595;SDS011;51003;51.628;6.670;2023-08-06T03:50:49;9.33;;;4.20;;
64595;SDS011;51003;51.628;6.670;2023-08-06T03:53:14;5.20;;;4.57;;
64595;SDS011;51003;51.628;6.670;2023-08-06T03:55:39;6.60;;;4.07;;
64595;SDS011;51003;51.628;6.670;2023-08-06T03:58:05;5.30;;;4.30;;
64595;SDS011;51003;51.628;6.670;2023-08-06T04:00:30;5.40;;;4.27;;
64595;SDS011;51003;51.628;6.670;2023-08-06T04:02:55;5.13;;;4.63;;
64595;SDS011;51003;51.628;6.670;2023-08-06T04:05:21;6.37;;;4.30;;
64595;SDS011;51003;51.628;6.670;2023-08-06T04:07:46;5.50;;;4.50;;
64595;SDS011;51003;51.628;6.670;2023-08-06T04:10:11;7.00;;;4.23;;
64595;SDS011;51003;51.628;6.670;2023-08-06T04:12:37;14.83;;;4.30;;
64595;SDS011;51003;51.628;6.670;2023-08-06T04:15:04;4.90;;;4.30;;
64595;SDS011;51003;51.628;6.670;2023-08-06T04:17:30;4.37;;;3.97;;
64595;SDS011;51003;51.628;6.670;2023-08-06T04:19:55;7.20;;;4.23;;
64595;SDS011;51003;51.628;6.670;2023-08-06T04:22:23;5.70;;;4.23;;
64595;SDS011;51003;51.628;6.670;2023-08-06T04:24:49;4.13;;;3.73;;
64595;SDS011;51003;51.628;6.670;2023-08-06T04:27:15;4.30;;;3.70;;
64595;SDS011;51003;51.628;6.670;2023-08-06T04:29:41;4.80;;;4.10;;
64595;SDS011;51003;51.628;6.670;2023-08-06T04:32:07;6.37;;;4.17;;
64595;SDS011;51003;51.628;6.670;2023-08-06T04:34:34;4.70;;;4.20;;
64595;SDS011;51003;51.628;6.670;2023-08-06T04:37:00;4.87;;;4.27;;
64595;SDS011;51003;51.628;6.670;2023-08-06T04:39:26;5.07;;;4.57;;
64595;SDS011;51003;51.628;6.670;2023-08-06T04:41:52;5.07;;;4.13;;
64595;SDS011;51003;51.628;6.670;2023-08-06T04:44:17;4.87;;;4.37;;
64595;SDS011;51003;51.628;6.670;2023-08-06T04:46:42;4.00;;;3.70;;
64595;SDS011;51003;51.628;6.670;2023-08-06T04:49:08;4.80;;;3.67;;
64595;SDS011;51003;51.628;6.670;2023-08-06T04:51:33;6.53;;;4.40;;
64595;SDS011;51003;51.628;6.670;2023-08-06T04:53:58;4.97;;;4.10;;
64595;SDS011;51003;51.628;6.670;2023-08-06T04:56:24;7.20;;;4.30;;
64595;SDS011;51003;51.628;6.670;2023-08-06T04:58:49;4.57;;;4.17;;
64595;SDS011;51003;51.628;6.670;2023-08-06T05:01:15;10.10;;;4.50;;
64595;SDS011;51003;51.628;6.670;2023-08-06T05:03:40;4.53;;;4.10;;
64595;SDS011;51003;51.628;6.670;2023-08-06T05:06:06;6.13;;;4.20;;
64595;SDS011;51003;51.628;6.670;2023-08-06T05:08:31;5.13;;;4.23;;
64595;SDS011;51003;51.628;6.670;2023-08-06T05:10:56;5.23;;;4.53;;
64595;SDS011;51003;51.628;6.670;2023-08-06T05:13:22;4.90;;;4.10;;
64595;SDS011;51003;51.628;6.670;2023-08-06T05:15:47;12.30;;;4.40;;
64595;SDS011;51003;51.628;6.670;2023-08-06T05:18:12;8.40;;;4.90;;
64595;SDS011;51003;51.628;6.670;2023-08-06T05:20:39;6.00;;;4.53;;
64595;SDS011;51003;51.628;6.670;2023-08-06T05:23:06;6.70;;;4.40;;
64595;SDS011;51003;51.628;6.670;2023-08-06T05:25:31;5.37;;;4.23;;
64595;SDS011;51003;51.628;6.670;2023-08-06T05:27:56;8.23;;;4.77;;
64595;SDS011;51003;51.628;6.670;2023-08-06T05:30:22;5.00;;;4.50;;
64595;SDS011;51003;51.628;6.670;2023-08-06T05:32:47;9.00;;;5.70;;
64595;SDS011;51003;51.628;6.670;2023-08-06T05:35:13;7.30;;;4.20;;
64595;SDS011;51003;51.628;6.670;2023-08-06T05:37:38;5.53;;;4.50;;
64595;SDS011;51003;51.628;6.670;2023-08-06T05:40:04;7.87;;;4.67;;
64595;SDS011;51003;51.628;6.670;2023-08-06T05:42:29;6.60;;;5.30;;
64595;SDS011;51003;51.628;6.670;2023-08-06T05:44:55;6.10;;;4.90;;
64595;SDS011;51003;51.628;6.670;2023-08-06T05:47:24;11.80;;;5.23;;
64595;SDS011;51003;51.628;6.670;2023-08-06T05:49:49;6.50;;;4.60;;
64595;SDS011;51003;51.628;6.670;2023-08-06T05:52:14;5.43;;;4.83;;
64595;SDS011;51003;51.628;6.670;2023-08-06T05:54:40;5.60;;;4.60;;
64595;SDS011;51003;51.628;6.670;2023-08-06T05:57:05;4.77;;;4.27;;
64595;SDS011;51003;51.628;6.670;2023-08-06T05:59:31;4.80;;;4.40;;
64595;SDS011;51003;51.628;6.670;2023-08-06T06:01:56;5.60;;;4.43;;
64595;SDS011;51003;51.628;6.670;2023-08-06T06:04:22;9.13;;;4.33;;
64595;SDS011;51003;51.628;6.670;2023-08-06T06:06:47;5.23;;;4.37;;
64595;SDS011;51003;51.628;6.670;2023-08-06T06:09:13;7.50;;;4.40;;
64595;SDS011;51003;51.628;6.670;2023-08-06T06:11:38;5.40;;;4.10;;
64595;SDS011;51003;51.628;6.670;2023-08-06T06:14:04;4.67;;;4.13;;
64595;SDS011;51003;51.628;6.670;2023-08-06T06:16:29;4.87;;;4.37;;
64595;SDS011;51003;51.628;6.670;2023-08-06T06:18:55;5.70;;;3.73;;
64595;SDS011;51003;51.628;6.670;2023-08-06T06:21:22;6.20;;;3.90;;
64595;SDS011;51003;51.628;6.670;2023-08-06T06:23:47;4.30;;;3.90;;
64595;SDS011;51003;51.628;6.670;2023-08-06T06:26:13;4.00;;;3.60;;
64595;SDS011;51003;51.628;6.670;2023-08-06T06:28:38;3.97;;;3.57;;
64595;SDS011;51003;51.628;6.670;2023-08-06T06:31:03;4.10;;;3.60;;
64595;SDS011;51003;51.628;6.670;2023-08-06T06:33:29;5.13;;;3.70;;
64595;SDS011;51003;51.628;6.670;2023-08-06T06:35:54;6.80;;;3.53;;
64595;SDS011;51003;51.628;6.670;2023-08-06T06:38:20;6.00;;;4.07;;
64595;SDS011;51003;51.628;6.670;2023-08-06T06:40:55;4.83;;;3.70;;
64595;SDS011;51003;51.628;6.670;2023-08-06T06:43:21;4.67;;;4.27;;
64595;SDS011;51003;51.628;6.670;2023-08-06T06:45:46;5.37;;;3.80;;
64595;SDS011;51003;51.628;6.670;2023-08-06T06:48:12;4.30;;;3.90;;
64595;SDS011;51003;51.628;6.670;2023-08-06T06:50:37;4.70;;;3.87;;
64595;SDS011;51003;51.628;6.670;2023-08-06T06:53:04;4.80;;;3.80;;
64595;SDS011;51003;51.628;6.670;2023-08-06T06:55:29;7.80;;;4.23;;
64595;SDS011;51003;51.628;6.670;2023-08-06T06:57:54;5.53;;;3.67;;
64595;SDS011;51003;51.628;6.670;2023-08-06T07:00:20;4.60;;;4.03;;
64595;SDS011;51003;51.628;6.670;2023-08-06T07:02:45;3.67;;;3.30;;
64595;SDS011;51003;51.628;6.670;2023-08-06T07:05:11;5.60;;;3.40;;
64595;SDS011;51003;51.628;6.670;2023-08-06T07:07:36;3.83;;;3.43;;
64595;SDS011;51003;51.628;6.670;2023-08-06T07:10:02;5.63;;;3.40;;
64595;SDS011;51003;51.628;6.670;2023-08-06T07:12:28;4.33;;;3.43;;
64595;SDS011;51003;51.628;6.670;2023-08-06T07:14:53;4.07;;;3.67;;
64595;SDS011;51003;51.628;6.670;2023-08-06T07:17:18;3.77;;;3.40;;
64595;SDS011;51003;51.628;6.670;2023-08-06T07:19:44;3.97;;;3.67;;
64595;SDS011;51003;51.628;6.670;2023-08-06T07:22:09;4.70;;;3.37;;
64595;SDS011;51003;51.628;6.670;2023-08-06T07:24:34;3.60;;;3.30;;
64595;SDS011;51003;51.628;6.670;2023-08-06T07:27:00;6.80;;;3.13;;
64595;SDS011;51003;51.628;6.670;2023-08-06T07:29:26;4.93;;;3.53;;
64595;SDS011;51003;51.628;6.670;2023-08-06T07:31:51;5.97;;;3.50;;
64595;SDS011;51003;51.628;6.670;2023-08-06T07:34:16;4.80;;;3.33;;
64595;SDS011;51003;51.628;6.670;2023-08-06T07:36:43;4.20;;;3.80;;
64595;SDS011;51003;51.628;6.670;2023-08-06T07:39:09;4.53;;;3.60;;
64595;SDS011;51003;51.628;6.670;2023-08-06T07:41:35;5.13;;;3.90;;
64595;SDS011;51003;51.628;6.670;2023-08-06T07:44:00;6.63;;;3.97;;
64595;SDS011;51003;51.628;6.670;2023-08-06T07:46:26;3.87;;;3.50;;
64595;SDS011;51003;51.628;6.670;2023-08-06T07:48:51;5.40;;;3.33;;
64595;SDS011;51003;51.628;6.670;2023-08-06T07:51:16;5.70;;;3.93;;
64595;SDS011;51003;51.628;6.670;2023-08-06T07:53:42;4.30;;;3.90;;
64595;SDS011;51003;51.628;6.670;2023-08-06T07:56:07;4.93;;;3.80;;
64595;SDS011;51003;51.628;6.670;2023-08-06T07:58:33;4.00;;;3.60;;
64595;SDS011;51003;51.628;6.670;2023-08-06T08:00:58;5.00;;;3.27;;
64595;SDS011;51003;51.628;6.670;2023-08-06T08:03:24;3.60;;;3.10;;
64595;SDS011;51003;51.628;6.670;2023-08-06T08:05:49;5.47;;;3.60;;
64595;SDS011;51003;51.628;6.670;2023-08-06T08:08:14;4.43;;;3.40;;
64595;SDS011;51003;51.628;6.670;2023-08-06T08:10:42;4.27;;;3.50;;
64595;SDS011;51003;51.628;6.670;2023-08-06T08:13:07;4.53;;;3.40;;
64595;SDS011;51003;51.628;6.670;2023-08-06T08:15:33;5.20;;;4.23;;
64595;SDS011;51003;51.628;6.670;2023-08-06T08:17:59;7.97;;;4.13;;
64595;SDS011;51003;51.628;6.670;2023-08-06T08:20:25;5.87;;;4.20;;
64595;SDS011;51003;51.628;6.670;2023-08-06T08:22:56;6.00;;;4.40;;
64595;SDS011;51003;51.628;6.670;2023-08-06T08:25:21;4.20;;;3.83;;
64595;SDS011;51003;51.628;6.670;2023-08-06T08:27:47;4.67;;;3.63;;
64595;SDS011;51003;51.628;6.670;2023-08-06T08:30:12;4.30;;;3.97;;
64595;SDS011;51003;51.628;6.670;2023-08-06T08:32:38;4.03;;;3.70;;
64595;SDS011;51003;51.628;6.670;2023-08-06T08:35:03;4.10;;;3.70;;
64595;SDS011;51003;51.628;6.670;2023-08-06T08:37:29;8.70;;;4.23;;
64595;SDS011;51003;51.628;6.670;2023-08-06T08:39:54;4.23;;;3.83;;
64595;SDS011;51003;51.628;6.670;2023-08-06T08:42:19;3.87;;;3.53;;
64595;SDS011;51003;51.628;6.670;2023-08-06T08:44:46;4.03;;;3.70;;
64595;SDS011;51003;51.628;6.670;2023-08-06T08:47:11;4.80;;;4.40;;
64595;SDS011;51003;51.628;6.670;2023-08-06T08:49:37;4.70;;;4.20;;
64595;SDS011;51003;51.628;6.670;2023-08-06T08:52:04;4.47;;;4.07;;
64595;SDS011;51003;51.628;6.670;2023-08-06T08:54:34;6.00;;;4.20;;
64595;SDS011;51003;51.628;6.670;2023-08-06T08:57:01;8.90;;;6.83;;
64595;SDS011;51003;51.628;6.670;2023-08-06T08:59:27;8.33;;;7.30;;
64595;SDS011;51003;51.628;6.670;2023-08-06T09:01:52;10.90;;;9.77;;
64595;SDS011;51003;51.628;6.670;2023-08-06T09:04:18;11.20;;;10.10;;
64595;SDS011;51003;51.628;6.670;2023-08-06T09:06:46;11.10;;;10.00;;
64595;SDS011;51003;51.628;6.670;2023-08-06T09:09:13;10.63;;;9.63;;
64595;SDS011;51003;51.628;6.670;2023-08-06T09:11:44;11.20;;;10.10;;
64595;SDS011;51003;51.628;6.670;2023-08-06T09:14:10;11.17;;;9.20;;
64595;SDS011;51003;51.628;6.670;2023-08-06T09:16:36;10.73;;;9.70;;
64595;SDS011;51003;51.628;6.670;2023-08-06T09:19:12;10.50;;;9.40;;
64595;SDS011;51003;51.628;6.670;2023-08-06T09:21:40;17.10;;;9.90;;
64595;SDS011;51003;51.628;6.670;2023-08-06T09:24:09;10.90;;;9.80;;
64595;SDS011;51003;51.628;6.670;2023-08-06T09:26:39;10.17;;;9.17;;
64595;SDS011;51003;51.628;6.670;2023-08-06T09:29:05;10.47;;;9.47;;
64595;SDS011;51003;51.628;6.670;2023-08-06T09:31:41;10.20;;;9.10;;
64595;SDS011;51003;51.628;6.670;2023-08-06T09:34:11;10.27;;;9.27;;
64595;SDS011;51003;51.628;6.670;2023-08-06T09:39:36;8.73;;;7.90;;
64595;SDS011;51003;51.628;6.670;2023-08-06T09:42:02;11.60;;;8.40;;
64595;SDS011;51003;51.628;6.670;2023-08-06T09:44:30;9.40;;;8.40;;
64595;SDS011;51003;51.628;6.670;2023-08-06T09:46:57;11.03;;;8.50;;
64595;SDS011;51003;51.628;6.670;2023-08-06T09:49:27;8.40;;;7.60;;
64595;SDS011;51003;51.628;6.670;2023-08-06T09:51:58;9.23;;;8.33;;
64595;SDS011;51003;51.628;6.670;2023-08-06T09:54:25;9.33;;;8.33;;
64595;SDS011;51003;51.628;6.670;2023-08-06T09:56:55;12.30;;;8.13;;
64595;SDS011;51003;51.628;6.670;2023-08-06T09:59:21;12.07;;;8.80;;
64595;SDS011;51003;51.628;6.670;2023-08-06T10:01:50;12.77;;;8.60;;
64595;SDS011;51003;51.628;6.670;2023-08-06T10:04:16;10.10;;;8.33;;
64595;SDS011;51003;51.628;6.670;2023-08-06T10:06:43;9.70;;;8.60;;
64595;SDS011;51003;51.628;6.670;2023-08-06T10:09:11;9.83;;;7.90;;
64595;SDS011;51003;51.628;6.670;2023-08-06T10:11:37;9.60;;;7.83;;
64595;SDS011;51003;51.628;6.670;2023-08-06T10:14:06;10.50;;;8.20;;
64595;SDS011;51003;51.628;6.670;2023-08-06T10:16:34;10.43;;;7.80;;
64595;SDS011;51003;51.628;6.670;2023-08-06T10:19:01;7.93;;;7.13;;
64595;SDS011;51003;51.628;6.670;2023-08-06T10:21:28;8.53;;;7.63;;
64595;SDS011;51003;51.628;6.670;2023-08-06T10:23:55;8.67;;;7.77;;
64595;SDS011;51003;51.628;6.670;2023-08-06T10:26:24;9.00;;;7.90;;
64595;SDS011;51003;51.628;6.670;2023-08-06T10:28:50;9.47;;;8.47;;
64595;SDS011;51003;51.628;6.670;2023-08-06T10:31:15;10.00;;;7.83;;
64595;SDS011;51003;51.628;6.670;2023-08-06T10:33:47;9.50;;;8.27;;
64595;SDS011;51003;51.628;6.670;2023-08-06T10:36:13;9.13;;;7.40;;
64595;SDS011;51003;51.628;6.670;2023-08-06T10:38:49;9.63;;;8.73;;
64595;SDS011;51003;51.628;6.670;2023-08-06T10:41:36;9.70;;;8.17;;
64595;SDS011;51003;51.628;6.670;2023-08-06T10:44:07;9.37;;;8.47;;
64595;SDS011;51003;51.628;6.670;2023-08-06T10:46:37;9.40;;;8.50;;
64595;SDS011;51003;51.628;6.670;2023-08-06T10:49:03;10.13;;;8.60;;
64595;SDS011;51003;51.628;6.670;2023-08-06T10:51:28;8.27;;;7.47;;
64595;SDS011;51003;51.628;6.670;2023-08-06T10:53:54;8.90;;;8.03;;
64595;SDS011;51003;51.628;6.670;2023-08-06T10:56:21;8.97;;;8.07;;
64595;SDS011;51003;51.628;6.670;2023-08-06T10:58:48;8.97;;;8.10;;
64595;SDS011;51003;51.628;6.670;2023-08-06T11:01:14;10.57;;;8.20;;
64595;SDS011;51003;51.628;6.670;2023-08-06T11:03:41;8.70;;;7.83;;
64595;SDS011;51003;51.628;6.670;2023-08-06T11:06:07;8.77;;;7.97;;
64595;SDS011;51003;51.628;6.670;2023-08-06T11:08:34;5.93;;;5.40;;
64595;SDS011;51003;51.628;6.670;2023-08-06T11:11:13;4.07;;;3.77;;
64595;SDS011;51003;51.628;6.670;2023-08-06T11:13:46;3.30;;;2.87;;
64595;SDS011;51003;51.628;6.670;2023-08-06T11:16:15;2.50;;;2.40;;
64595;SDS011;51003;51.628;6.670;2023-08-06T11:18:44;2.10;;;2.00;;
64595;SDS011;51003;51.628;6.670;2023-08-06T11:21:10;2.50;;;2.40;;
64595;SDS011;51003;51.628;6.670;2023-08-06T11:23:39;2.53;;;2.40;;
64595;SDS011;51003;51.628;6.670;2023-08-06T11:26:05;2.70;;;2.53;;
64595;SDS011;51003;51.628;6.670;2023-08-06T11:28:31;2.67;;;2.47;;
64595;SDS011;51003;51.628;6.670;2023-08-06T11:30:57;2.13;;;2.03;;
64595;SDS011;51003;51.628;6.670;2023-08-06T11:33:27;2.00;;;1.80;;
64595;SDS011;51003;51.628;6.670;2023-08-06T11:35:56;1.83;;;1.73;;
64595;SDS011;51003;51.628;6.670;2023-08-06T11:38:29;1.60;;;1.50;;
64595;SDS011;51003;51.628;6.670;2023-08-06T11:40:55;1.50;;;1.40;;
64595;SDS011;51003;51.628;6.670;2023-08-06T11:43:20;1.30;;;1.20;;
64595;SDS011;51003;51.628;6.670;2023-08-06T11:45:47;1.10;;;1.10;;
64595;SDS011;51003;51.628;6.670;2023-08-06T11:48:18;1.30;;;1.00;;
64595;SDS011;51003;51.628;6.670;2023-08-06T11:50:43;1.67;;;0.80;;
64595;SDS011;51003;51.628;6.670;2023-08-06T11:53:11;1.07;;;1.00;;
64595;SDS011;51003;51.628;6.670;2023-08-06T11:55:37;1.20;;;0.97;;
64595;SDS011;51003;51.628;6.670;2023-08-06T11:58:03;1.00;;;0.90;;
64595;SDS011;51003;51.628;6.670;2023-08-06T12:00:31;1.00;;;1.00;;
64595;SDS011;51003;51.628;6.670;2023-08-06T12:02:57;1.10;;;1.00;;
64595;SDS011;51003;51.628;6.670;2023-08-06T12:05:23;1.10;;;1.00;;
64595;SDS011;51003;51.628;6.670;2023-08-06T12:07:49;1.10;;;0.87;;
64595;SDS011;51003;51.628;6.670;2023-08-06T12:10:16;1.10;;;0.90;;
64595;SDS011;51003;51.628;6.670;2023-08-06T12:12:42;2.13;;;1.63;;
64595;SDS011;51003;51.628;6.670;2023-08-06T12:15:08;0.70;;;0.70;;
64595;SDS011;51003;51.628;6.670;2023-08-06T12:17:34;2.93;;;0.93;;
64595;SDS011;51003;51.628;6.670;2023-08-06T12:20:01;1.10;;;0.90;;
64595;SDS011;51003;51.628;6.670;2023-08-06T12:22:27;1.20;;;1.10;;
64595;SDS011;51003;51.628;6.670;2023-08-06T12:24:53;1.30;;;1.20;;
64595;SDS011;51003;51.628;6.670;2023-08-06T12:27:18;1.10;;;1.00;;
64595;SDS011;51003;51.628;6.670;2023-08-06T12:29:44;1.00;;;1.00;;
64595;SDS011;51003;51.628;6.670;2023-08-06T12:32:11;1.37;;;1.27;;
64595;SDS011;51003;51.628;6.670;2023-08-06T12:34:40;1.30;;;1.20;;
64595;SDS011;51003;51.628;6.670;2023-08-06T12:37:06;1.10;;;1.03;;
64595;SDS011;51003;51.628;6.670;2023-08-06T12:39:32;1.33;;;1.23;;
64595;SDS011;51003;51.628;6.670;2023-08-06T12:41:59;1.13;;;1.07;;
64595;SDS011;51003;51.628;6.670;2023-08-06T12:44:24;1.50;;;1.20;;
64595;SDS011;51003;51.628;6.670;2023-08-06T12:46:51;1.30;;;1.20;;
64595;SDS011;51003;51.628;6.670;2023-08-06T12:49:17;3.40;;;1.27;;
64595;SDS011;51003;51.628;6.670;2023-08-06T12:51:43;2.77;;;1.50;;
64595;SDS011;51003;51.628;6.670;2023-08-06T12:54:08;1.70;;;1.60;;
64595;SDS011;51003;51.628;6.670;2023-08-06T12:56:34;2.00;;;1.27;;
64595;SDS011;51003;51.628;6.670;2023-08-06T12:58:59;1.80;;;1.70;;
64595;SDS011;51003;51.628;6.670;2023-08-06T13:01:24;1.70;;;1.60;;
64595;SDS011;51003;51.628;6.670;2023-08-06T13:03:50;1.80;;;1.70;;
64595;SDS011;51003;51.628;6.670;2023-08-06T13:06:16;3.43;;;1.53;;
64595;SDS011;51003;51.628;6.670;2023-08-06T13:08:41;1.93;;;1.83;;
64595;SDS011;51003;51.628;6.670;2023-08-06T13:11:06;1.97;;;1.87;;
64595;SDS011;51003;51.628;6.670;2023-08-06T13:13:32;1.73;;;1.63;;
64595;SDS011;51003;51.628;6.670;2023-08-06T13:15:57;2.47;;;2.27;;
64595;SDS011;51003;51.628;6.670;2023-08-06T13:18:26;2.37;;;2.17;;
64595;SDS011;51003;51.628;6.670;2023-08-06T13:20:55;2.63;;;2.17;;
64595;SDS011;51003;51.628;6.670;2023-08-06T13:23:21;2.37;;;2.17;;
64595;SDS011;51003;51.628;6.670;2023-08-06T13:25:47;2.27;;;2.03;;
64595;SDS011;51003;51.628;6.670;2023-08-06T13:28:12;3.67;;;2.40;;
64595;SDS011;51003;51.628;6.670;2023-08-06T13:30:39;2.37;;;2.27;;
64595;SDS011;51003;51.628;6.670;2023-08-06T13:33:10;3.40;;;2.20;;
64595;SDS011;51003;51.628;6.670;2023-08-06T13:35:35;2.27;;;2.07;;
64595;SDS011;51003;51.628;6.670;2023-08-06T13:38:01;2.10;;;2.00;;
64595;SDS011;51003;51.628;6.670;2023-08-06T13:40:28;2.50;;;2.30;;
64595;SDS011;51003;51.628;6.670;2023-08-06T13:42:53;2.30;;;2.10;;
64595;SDS011;51003;51.628;6.670;2023-08-06T13:45:19;2.50;;;2.30;;
64595;SDS011;51003;51.628;6.670;2023-08-06T13:47:44;3.40;;;2.37;;
64595;SDS011;51003;51.628;6.670;2023-08-06T13:50:10;2.50;;;2.30;;
64595;SDS011;51003;51.628;6.670;2023-08-06T13:52:35;2.73;;;2.50;;
64595;SDS011;51003;51.628;6.670;2023-08-06T13:55:01;3.33;;;2.63;;
64595;SDS011;51003;51.628;6.670;2023-08-06T13:57:28;2.77;;;2.43;;
64595;SDS011;51003;51.628;6.670;2023-08-06T13:59:54;2.53;;;2.33;;
64595;SDS011;51003;51.628;6.670;2023-08-06T14:02:19;3.10;;;2.87;;
64595;SDS011;51003;51.628;6.670;2023-08-06T14:04:44;2.83;;;2.40;;
64595;SDS011;51003;51.628;6.670;2023-08-06T14:07:10;3.20;;;2.60;;
64595;SDS011;51003;51.628;6.670;2023-08-06T14:09:35;3.03;;;2.73;;
64595;SDS011;51003;51.628;6.670;2023-08-06T14:12:01;3.50;;;3.30;;
64595;SDS011;51003;51.628;6.670;2023-08-06T14:14:28;4.50;;;2.83;;
64595;SDS011;51003;51.628;6.670;2023-08-06T14:16:53;3.87;;;2.67;;
64595;SDS011;51003;51.628;6.670;2023-08-06T14:19:19;2.80;;;2.60;;
64595;SDS011;51003;51.628;6.670;2023-08-06T14:21:45;3.23;;;2.73;;
64595;SDS011;51003;51.628;6.670;2023-08-06T14:24:11;2.83;;;2.63;;
64595;SDS011;51003;51.628;6.670;2023-08-06T14:26:37;3.40;;;3.10;;
64595;SDS011;51003;51.628;6.670;2023-08-06T14:29:03;3.10;;;2.90;;
64595;SDS011;51003;51.628;6.670;2023-08-06T14:31:29;3.57;;;2.57;;
64595;SDS011;51003;51.628;6.670;2023-08-06T14:33:55;4.77;;;3.27;;
64595;SDS011;51003;51.628;6.670;2023-08-06T14:36:20;3.37;;;2.70;;
64595;SDS011;51003;51.628;6.670;2023-08-06T14:38:46;2.87;;;2.67;;
64595;SDS011;51003;51.628;6.670;2023-08-06T14:41:12;2.53;;;2.20;;
64595;SDS011;51003;51.628;6.670;2023-08-06T14:43:38;3.00;;;2.70;;
64595;SDS011;51003;51.628;6.670;2023-08-06T14:46:03;3.10;;;2.60;;